Decoded Metar for KCGS (COLLEGE PARK in MD, USA) (IATA:CGS) | Meteo·Mobile Aviation Weather
aviador You're here:

KCGS Decoded Metar

COLLEGE PARK in MD, USA
Report Time2018-12-11 09:42:00
UTC Time2018-12-11 10:05:40
Flight Rules vfr VFR
WindCalm
Visibility9999 m
Phenomena:N/A
Clouds:N/A
Expected CloudBase > 400 ft AGL from Temp-Dew spread
CeilingNone
Temp-6°C (ISA -21)
Dew Point-7°C (93% RH)
AAT-8.8°C
QNH1022 hPa
Density Alt-2,799 ft
Elevation49 ft
Report Wrong Elevation
Raw Report
KCGS 110942Z AUTO 00000KT 7SM CLR M06/M07 A3017 RMK AO1
T10631075=

Extra information for KCGS:More info

Metar Taf Metar & Taf Last 4 Metars F.Rules Stats Wind Profile Meteogram Temp Stats Airport Information Weather charts Add Link Nearby VenuesMetar ALERT Operation Metar Decoded Social comments

AIRNAV info for KCGS